createdAt,value
2018-05-02T00:00:03.194Z,1.40
2018-05-02T00:02:33.623Z,1.40
2018-05-02T00:05:03.232Z,1.10
2018-05-02T00:07:32.848Z,1.70
2018-05-02T00:10:02.505Z,1.43
2018-05-02T00:12:32.155Z,1.40
2018-05-02T00:15:01.782Z,1.70
2018-05-02T00:17:31.441Z,1.40
2018-05-02T00:20:01.061Z,1.37
2018-05-02T00:22:30.684Z,1.33
2018-05-02T00:25:00.336Z,1.40
2018-05-02T00:27:29.964Z,1.47
2018-05-02T00:29:59.682Z,1.30
2018-05-02T00:32:29.304Z,1.13
2018-05-02T00:34:58.924Z,1.40
2018-05-02T00:37:28.584Z,1.60
2018-05-02T00:39:58.199Z,1.50
2018-05-02T00:42:27.806Z,1.80
2018-05-02T00:44:57.476Z,1.33
2018-05-02T00:47:27.100Z,1.60
2018-05-02T00:49:56.747Z,1.53
2018-05-02T00:52:26.506Z,1.23
2018-05-02T00:54:56.135Z,1.30
2018-05-02T00:57:25.755Z,1.20
2018-05-02T00:59:55.432Z,1.50
2018-05-02T01:02:25.059Z,1.73
2018-05-02T01:04:54.679Z,1.30
2018-05-02T01:07:24.352Z,1.43
2018-05-02T01:09:53.965Z,1.40
2018-05-02T01:12:23.615Z,1.23
2018-05-02T01:14:53.272Z,1.20
2018-05-02T01:17:22.912Z,1.10
2018-05-02T01:19:52.543Z,1.30
2018-05-02T01:22:22.190Z,1.17
2018-05-02T01:24:51.813Z,1.20
2018-05-02T01:27:21.468Z,1.17
2018-05-02T01:29:51.360Z,1.40
2018-05-02T01:32:20.992Z,1.40
2018-05-02T01:34:50.600Z,1.20
2018-05-02T01:37:20.254Z,1.23
2018-05-02T01:39:49.591Z,1.40
2018-05-02T01:42:19.209Z,1.43
2018-05-02T01:44:48.867Z,1.30
2018-05-02T01:47:18.502Z,1.43
2018-05-02T01:49:48.190Z,1.40
2018-05-02T01:52:17.849Z,1.20
2018-05-02T01:54:47.466Z,1.47
2018-05-02T01:57:17.112Z,1.30
2018-05-02T01:59:46.811Z,1.30
2018-05-02T02:02:16.423Z,1.30
2018-05-02T02:04:46.092Z,1.40
2018-05-02T02:07:15.434Z,1.30
2018-05-02T02:09:44.785Z,1.10
2018-05-02T02:12:14.172Z,1.40
2018-05-02T02:14:43.636Z,1.40
2018-05-02T02:17:13.418Z,1.20
2018-05-02T02:19:43.081Z,1.27
2018-05-02T02:22:12.700Z,1.50
2018-05-02T02:24:42.306Z,1.40
2018-05-02T02:27:11.972Z,1.30
2018-05-02T02:29:41.607Z,1.47
2018-05-02T02:32:11.254Z,1.30
2018-05-02T02:34:40.951Z,1.60
2018-05-02T02:37:10.569Z,1.50
2018-05-02T02:39:40.200Z,1.30
2018-05-02T02:42:09.869Z,1.37
2018-05-02T02:44:39.494Z,1.57
2018-05-02T02:47:09.136Z,1.73
2018-05-02T02:49:38.805Z,1.50
2018-05-02T02:52:08.419Z,1.70
2018-05-02T02:54:37.813Z,1.63
2018-05-02T02:57:07.470Z,1.60
2018-05-02T02:59:37.088Z,1.63
2018-05-02T03:02:06.699Z,1.97
2018-05-02T03:04:36.366Z,2.40
2018-05-02T03:07:05.667Z,2.00
2018-05-02T03:09:35.508Z,2.03
2018-05-02T03:12:05.192Z,3.30
2018-05-02T03:14:34.805Z,2.70
2018-05-02T03:17:04.420Z,2.83
2018-05-02T03:19:34.091Z,2.30
2018-05-02T03:22:03.692Z,1.93
2018-05-02T03:24:33.308Z,1.60
2018-05-02T03:27:02.975Z,1.80
2018-05-02T03:29:32.531Z,2.00
2018-05-02T03:32:02.157Z,2.00
2018-05-02T03:34:31.834Z,1.93
2018-05-02T03:37:01.534Z,1.97
2018-05-02T03:39:31.144Z,1.83
2018-05-02T03:42:00.802Z,2.07
2018-05-02T03:44:30.406Z,1.80
2018-05-02T03:47:00.024Z,1.63
2018-05-02T03:49:29.702Z,1.83
2018-05-02T03:51:59.315Z,2.03
2018-05-02T03:54:28.930Z,2.00
2018-05-02T03:56:58.590Z,1.60
2018-05-02T03:59:39.528Z,1.87
2018-05-02T04:02:20.259Z,1.80
2018-05-02T04:05:00.830Z,1.80
2018-05-02T04:07:30.234Z,1.67
2018-05-02T04:09:59.842Z,2.07
2018-05-02T04:12:29.220Z,1.60
2018-05-02T04:14:58.878Z,2.00
2018-05-02T04:17:28.517Z,1.83
2018-05-02T04:19:58.135Z,1.77
2018-05-02T04:22:27.805Z,1.67
2018-05-02T04:24:57.420Z,1.90
2018-05-02T04:27:27.031Z,1.77
2018-05-02T04:29:56.687Z,2.00
2018-05-02T04:32:26.298Z,1.70
2018-05-02T04:34:55.916Z,2.00
2018-05-02T04:37:25.316Z,1.63
2018-05-02T04:39:54.936Z,1.90
2018-05-02T04:42:24.589Z,1.70
2018-05-02T04:44:54.275Z,1.73
2018-05-02T04:47:23.897Z,1.70
2018-05-02T04:49:53.535Z,1.67
2018-05-02T04:52:23.194Z,1.60
2018-05-02T04:54:52.807Z,1.50
2018-05-02T04:57:22.434Z,2.00
2018-05-02T04:59:52.100Z,1.50
2018-05-02T05:02:21.717Z,1.50
2018-05-02T05:04:51.402Z,1.60
2018-05-02T05:07:21.091Z,1.80
2018-05-02T05:09:50.711Z,1.67
2018-05-02T05:12:20.404Z,1.50
2018-05-02T05:14:50.221Z,1.20
2018-05-02T05:17:19.831Z,1.43
2018-05-02T05:19:49.480Z,1.70
2018-05-02T05:22:19.142Z,1.80
2018-05-02T05:24:48.754Z,1.57
2018-05-02T05:27:18.394Z,1.63
2018-05-02T05:29:48.055Z,1.80
2018-05-02T05:32:17.676Z,1.60
2018-05-02T05:34:47.302Z,1.50
2018-05-02T05:37:16.954Z,1.70
2018-05-02T05:39:46.593Z,2.10
2018-05-02T05:42:16.210Z,2.17
2018-05-02T05:44:45.858Z,2.40
2018-05-02T05:47:15.500Z,2.10
2018-05-02T05:49:45.107Z,1.50
2018-05-02T05:52:14.757Z,1.40
2018-05-02T05:54:44.405Z,1.50
2018-05-02T05:57:14.029Z,1.40
2018-05-02T05:59:43.691Z,1.50
2018-05-02T06:02:13.306Z,1.60
2018-05-02T06:04:42.925Z,1.40
2018-05-02T06:07:13.311Z,1.50
2018-05-02T06:09:42.947Z,1.60
2018-05-02T06:12:12.557Z,1.57
2018-05-02T06:14:42.214Z,1.23
2018-05-02T06:17:11.842Z,1.37
2018-05-02T06:19:41.454Z,1.33
2018-05-02T06:22:11.117Z,1.20
2018-05-02T06:24:40.734Z,1.50
2018-05-02T06:27:10.372Z,1.20
2018-05-02T06:29:40.036Z,1.40
2018-05-02T06:32:09.669Z,1.30
2018-05-02T06:34:39.308Z,1.60
2018-05-02T06:37:08.966Z,1.13
2018-05-02T06:39:38.354Z,1.00
2018-05-02T06:42:08.047Z,1.40
2018-05-02T06:44:37.875Z,1.30
2018-05-02T06:47:07.487Z,1.23
2018-05-02T06:49:37.128Z,1.50
2018-05-02T06:52:06.805Z,1.70
2018-05-02T06:54:36.459Z,1.23
2018-05-02T06:57:06.325Z,1.37
2018-05-02T06:59:35.980Z,1.17
2018-05-02T07:02:05.604Z,1.30
2018-05-02T07:04:35.237Z,1.10
2018-05-02T07:07:04.904Z,1.30
2018-05-02T07:09:34.519Z,1.40
2018-05-02T07:12:04.163Z,1.40
2018-05-02T07:14:33.823Z,1.57
2018-05-02T07:17:03.439Z,1.97
2018-05-02T07:19:33.077Z,2.10
2018-05-02T07:22:02.711Z,1.60
2018-05-02T07:24:32.338Z,2.37
2018-05-02T07:27:01.975Z,2.60
2018-05-02T07:29:31.670Z,2.50
2018-05-02T07:32:01.287Z,2.10
2018-05-02T07:34:30.930Z,1.70
2018-05-02T07:37:00.579Z,1.60
2018-05-02T07:39:30.208Z,1.50
2018-05-02T07:41:59.826Z,1.10
2018-05-02T07:44:29.542Z,1.27
2018-05-02T07:46:59.170Z,1.37
2018-05-02T07:49:28.781Z,1.53
2018-05-02T07:51:58.493Z,1.20
2018-05-02T07:54:28.108Z,1.50
2018-05-02T07:56:57.740Z,1.67
2018-05-02T07:59:27.620Z,1.17
2018-05-02T08:01:57.232Z,1.20
2018-05-02T08:04:26.895Z,1.50
2018-05-02T08:06:56.562Z,1.30
2018-05-02T08:09:26.195Z,1.40
2018-05-02T08:11:55.871Z,1.57
2018-05-02T08:14:26.013Z,1.97
2018-05-02T08:16:55.753Z,1.60
2018-05-02T08:19:25.377Z,1.50
2018-05-02T08:21:55.030Z,1.23
2018-05-02T08:24:24.652Z,1.60
2018-05-02T08:26:54.279Z,1.53
2018-05-02T08:29:24.153Z,1.40
2018-05-02T08:31:53.788Z,1.53
2018-05-02T08:34:23.408Z,1.30
2018-05-02T08:36:53.079Z,1.57
2018-05-02T08:39:22.734Z,1.60
2018-05-02T08:41:52.338Z,2.03
2018-05-02T08:44:22.013Z,1.40
2018-05-02T08:46:51.730Z,1.50
2018-05-02T08:49:21.369Z,1.40
2018-05-02T08:51:51.015Z,1.20
2018-05-02T08:54:20.632Z,1.10
2018-05-02T08:56:50.238Z,1.20
2018-05-02T08:59:19.940Z,1.50
2018-05-02T09:01:49.647Z,1.60
2018-05-02T09:04:19.420Z,2.07
2018-05-02T09:06:49.082Z,1.20
2018-05-02T09:09:18.721Z,1.37
2018-05-02T09:11:48.335Z,1.40
2018-05-02T09:14:18.254Z,1.30
2018-05-02T09:16:47.968Z,1.40
2018-05-02T09:19:17.639Z,1.60
2018-05-02T09:21:49.089Z,1.40
2018-05-02T09:24:19.976Z,1.60
2018-05-02T09:26:49.639Z,1.90
2018-05-02T09:29:18.933Z,2.00
2018-05-02T09:31:48.566Z,2.00
2018-05-02T09:34:18.235Z,1.83
2018-05-02T09:36:47.842Z,1.97
2018-05-02T09:39:17.184Z,2.40
2018-05-02T09:41:46.839Z,2.00
2018-05-02T09:44:16.475Z,2.00
2018-05-02T09:46:46.100Z,2.10
2018-05-02T09:49:15.815Z,1.90
2018-05-02T09:51:45.436Z,2.00
2018-05-02T09:54:15.063Z,2.07
2018-05-02T09:56:44.724Z,2.30
2018-05-02T09:59:14.341Z,2.43
2018-05-02T10:01:43.966Z,2.53
2018-05-02T10:04:13.615Z,2.67
2018-05-02T10:06:43.235Z,2.87
2018-05-02T10:09:12.838Z,2.53
2018-05-02T10:11:42.533Z,2.33
2018-05-02T10:14:11.906Z,2.23
2018-05-02T10:16:41.519Z,2.43
2018-05-02T10:19:11.170Z,2.50
2018-05-02T10:21:40.507Z,2.80
2018-05-02T10:24:10.135Z,2.77
2018-05-02T10:26:39.807Z,2.43
2018-05-02T10:29:09.433Z,2.30
2018-05-02T10:31:39.055Z,2.50
2018-05-02T10:34:08.800Z,3.30
2018-05-02T10:36:38.295Z,3.07
2018-05-02T10:39:07.588Z,2.87
2018-05-02T10:41:36.902Z,2.60
2018-05-02T10:44:06.514Z,2.83
2018-05-02T10:46:36.136Z,2.77
2018-05-02T10:49:05.521Z,2.40
2018-05-02T10:51:34.967Z,2.83
2018-05-02T10:54:04.582Z,2.63
2018-05-02T10:56:34.351Z,2.90
2018-05-02T10:59:03.958Z,2.90
2018-05-02T11:01:33.582Z,3.30
2018-05-02T11:04:03.245Z,3.07
2018-05-02T11:06:32.952Z,3.30
2018-05-02T11:09:02.581Z,3.07
2018-05-02T11:11:32.240Z,3.43
2018-05-02T11:14:01.866Z,3.23
2018-05-02T11:16:31.250Z,3.47
2018-05-02T11:19:00.898Z,3.50
2018-05-02T11:21:30.510Z,3.67
2018-05-02T11:24:00.155Z,3.70
2018-05-02T11:26:29.933Z,3.90
2018-05-02T11:28:59.322Z,4.13
2018-05-02T11:31:29.180Z,3.90
2018-05-02T11:33:58.826Z,4.07
2018-05-02T11:36:28.434Z,4.03
2018-05-02T11:38:58.110Z,4.00
2018-05-02T11:41:27.725Z,4.10
2018-05-02T11:43:57.335Z,3.80
2018-05-02T11:46:27.000Z,4.03
2018-05-02T11:48:56.632Z,4.07
2018-05-02T11:51:26.263Z,3.90
2018-05-02T11:53:55.667Z,4.23
2018-05-02T11:56:25.287Z,4.10
2018-05-02T11:58:54.910Z,4.13
2018-05-02T12:01:24.963Z,4.40
2018-05-02T12:03:54.588Z,4.20
2018-05-02T12:06:24.237Z,4.50
2018-05-02T12:08:53.951Z,4.37
2018-05-02T12:11:23.571Z,4.40
2018-05-02T12:13:53.215Z,4.43
2018-05-02T12:16:22.831Z,4.57
2018-05-02T12:18:52.457Z,4.20
2018-05-02T12:21:22.118Z,4.53
2018-05-02T12:23:51.744Z,5.00
2018-05-02T12:26:21.372Z,4.83
2018-05-02T12:28:50.993Z,4.47
2018-05-02T12:31:21.346Z,4.97
2018-05-02T12:33:51.012Z,5.20
2018-05-02T12:36:21.288Z,5.30
2018-05-02T12:38:50.944Z,4.87
2018-05-02T12:41:20.570Z,5.10
2018-05-02T12:43:50.207Z,5.23
2018-05-02T12:46:19.841Z,6.23
2018-05-02T12:48:49.466Z,5.87
2018-05-02T12:51:19.135Z,5.70
2018-05-02T12:53:48.831Z,5.27
2018-05-02T12:56:18.552Z,5.53
2018-05-02T12:58:48.315Z,5.57
2018-05-02T13:01:17.937Z,6.63
2018-05-02T13:03:47.612Z,6.47
2018-05-02T13:06:17.244Z,5.30
2018-05-02T13:08:46.898Z,6.57
2018-05-02T13:11:16.530Z,5.70
2018-05-02T13:13:46.163Z,6.83
2018-05-02T13:16:15.909Z,6.73
2018-05-02T13:18:45.536Z,6.10
2018-05-02T13:21:15.162Z,6.23
2018-05-02T13:23:44.798Z,6.20
2018-05-02T13:26:14.489Z,5.57
2018-05-02T13:28:44.175Z,6.60
2018-05-02T13:31:13.806Z,6.07
2018-05-02T13:33:43.431Z,6.00
2018-05-02T13:36:13.043Z,5.83
2018-05-02T13:38:42.662Z,5.57
2018-05-02T13:41:12.322Z,6.07
2018-05-02T13:43:41.955Z,6.40
2018-05-02T13:46:11.588Z,5.93
2018-05-02T13:48:41.212Z,5.33
2018-05-02T13:51:10.835Z,5.77
2018-05-02T13:53:40.494Z,6.00
2018-05-02T13:56:10.148Z,6.03
2018-05-02T13:58:39.806Z,6.13
2018-05-02T14:01:09.423Z,5.77
2018-05-02T14:03:39.051Z,6.50
2018-05-02T14:06:08.727Z,5.80
2018-05-02T14:08:38.567Z,6.47
2018-05-02T14:11:08.219Z,6.70
2018-05-02T14:13:37.833Z,6.77
2018-05-02T14:16:07.454Z,6.43
2018-05-02T14:18:37.119Z,7.30
2018-05-02T14:21:06.735Z,6.53
2018-05-02T14:23:36.364Z,6.13
2018-05-02T14:26:05.995Z,6.70
2018-05-02T14:28:35.629Z,6.97
2018-05-02T14:31:05.303Z,7.07
2018-05-02T14:33:34.932Z,6.00
2018-05-02T14:36:04.568Z,6.90
2018-05-02T14:38:34.193Z,6.53
2018-05-02T14:41:03.801Z,6.20
2018-05-02T14:43:33.473Z,6.93
2018-05-02T14:46:03.128Z,6.00
2018-05-02T14:48:32.766Z,6.23
2018-05-02T14:51:02.400Z,6.57
2018-05-02T14:53:32.019Z,6.60
2018-05-02T14:56:01.671Z,6.53
2018-05-02T14:58:31.289Z,6.33
2018-05-02T15:01:00.910Z,5.87
2018-05-02T15:03:30.520Z,5.90
2018-05-02T15:06:00.135Z,6.17
2018-05-02T15:08:29.535Z,6.30
2018-05-02T15:10:59.147Z,6.40
2018-05-02T15:13:28.766Z,6.37
2018-05-02T15:15:58.398Z,5.87
2018-05-02T15:18:28.015Z,6.23
2018-05-02T15:20:57.691Z,6.17
2018-05-02T15:23:27.294Z,6.07
2018-05-02T15:25:56.909Z,6.03
2018-05-02T15:28:26.537Z,5.23
2018-05-02T15:30:56.157Z,6.37
2018-05-02T15:33:25.825Z,5.80
2018-05-02T15:35:55.441Z,6.27
2018-05-02T15:38:25.055Z,5.70
2018-05-02T15:40:54.691Z,5.87
2018-05-02T15:43:24.305Z,5.90
2018-05-02T15:45:53.979Z,6.37
2018-05-02T15:48:23.597Z,5.97
2018-05-02T15:50:53.256Z,5.87
2018-05-02T15:53:22.881Z,6.00
2018-05-02T15:55:52.499Z,6.37
2018-05-02T15:58:22.192Z,6.13
2018-05-02T16:00:52.017Z,6.43
2018-05-02T16:03:21.684Z,5.60
2018-05-02T16:05:51.304Z,5.67
2018-05-02T16:08:20.943Z,6.60
2018-05-02T16:10:50.641Z,6.20
2018-05-02T16:13:20.265Z,5.70
2018-05-02T16:15:50.122Z,6.30
2018-05-02T16:18:19.749Z,5.90
2018-05-02T16:20:49.387Z,6.33
2018-05-02T16:23:19.017Z,7.23
2018-05-02T16:25:48.654Z,6.53
2018-05-02T16:28:18.281Z,5.87
2018-05-02T16:30:47.937Z,5.83
2018-05-02T16:33:17.603Z,5.27
2018-05-02T16:35:47.407Z,5.40
2018-05-02T16:38:17.055Z,5.90
2018-05-02T16:40:46.791Z,5.23
2018-05-02T16:43:16.417Z,6.03
2018-05-02T16:45:46.051Z,7.00
2018-05-02T16:48:15.671Z,5.77
2018-05-02T16:50:45.337Z,6.30
2018-05-02T16:53:14.961Z,6.70
2018-05-02T16:55:44.583Z,6.00
2018-05-02T16:58:14.289Z,5.83
2018-05-02T17:00:43.902Z,6.70
2018-05-02T17:03:13.650Z,6.20
2018-05-02T17:05:43.270Z,6.13
2018-05-02T17:08:12.894Z,6.73
2018-05-02T17:10:42.520Z,6.47
2018-05-02T17:13:12.160Z,6.87
2018-05-02T17:15:41.849Z,6.67
2018-05-02T17:18:11.474Z,6.80
2018-05-02T17:20:40.812Z,6.47
2018-05-02T17:23:10.447Z,7.10
2018-05-02T17:25:40.078Z,7.63
2018-05-02T17:28:09.749Z,7.70
2018-05-02T17:30:39.538Z,7.97
2018-05-02T17:33:09.162Z,7.30
2018-05-02T17:35:38.778Z,6.77
2018-05-02T17:38:08.395Z,7.23
2018-05-02T17:40:38.042Z,7.30
2018-05-02T17:43:07.666Z,6.87
2018-05-02T17:45:37.280Z,8.43
2018-05-02T17:48:06.931Z,7.63
2018-05-02T17:50:36.548Z,7.30
2018-05-02T17:53:05.946Z,7.27
2018-05-02T17:55:35.580Z,7.43
2018-05-02T17:58:05.220Z,7.50
2018-05-02T18:00:34.854Z,8.37
2018-05-02T18:03:04.472Z,8.60
2018-05-02T18:05:34.162Z,9.33
2018-05-02T18:08:03.989Z,9.90
2018-05-02T18:10:33.728Z,11.17
2018-05-02T18:13:03.551Z,12.10
2018-05-02T18:15:33.189Z,11.07
2018-05-02T18:18:02.857Z,11.13
2018-05-02T18:20:32.493Z,10.80
2018-05-02T18:23:02.133Z,10.80
2018-05-02T18:25:31.828Z,10.27
2018-05-02T18:28:01.534Z,9.17
2018-05-02T18:30:31.364Z,9.40
2018-05-02T18:33:01.007Z,11.60
2018-05-02T18:35:30.647Z,14.10
2018-05-02T18:38:00.293Z,12.93
2018-05-02T18:40:29.929Z,12.97
2018-05-02T18:42:59.651Z,11.40
2018-05-02T18:45:29.292Z,11.13
2018-05-02T18:47:58.941Z,11.07
2018-05-02T18:50:28.569Z,10.87
2018-05-02T18:52:58.204Z,11.57
2018-05-02T18:55:27.896Z,11.27
2018-05-02T18:57:57.533Z,11.10
2018-05-02T19:00:27.163Z,10.57
2018-05-02T19:02:56.789Z,10.50
2018-05-02T19:05:26.428Z,10.93
2018-05-02T19:07:56.134Z,10.10
2018-05-02T19:10:25.761Z,9.93
2018-05-02T19:12:55.393Z,10.03
2018-05-02T19:15:25.028Z,10.60
2018-05-02T19:17:59.960Z,9.77
2018-05-02T19:20:34.937Z,10.70
2018-05-02T19:23:04.261Z,10.43
2018-05-02T19:25:39.152Z,10.83
2018-05-02T19:28:08.793Z,10.10
2018-05-02T19:30:38.460Z,9.90
2018-05-02T19:33:13.436Z,10.77
2018-05-02T19:35:43.123Z,10.83
2018-05-02T19:38:12.767Z,10.67
2018-05-02T19:40:47.849Z,10.93
2018-05-02T19:43:22.762Z,12.73
2018-05-02T19:45:52.436Z,11.43
2018-05-02T19:48:22.079Z,11.37
2018-05-02T19:50:57.104Z,10.93
2018-05-02T19:53:26.754Z,11.30
2018-05-02T19:55:56.409Z,10.47
2018-05-02T19:58:26.033Z,11.50
2018-05-02T20:01:00.926Z,10.87
2018-05-02T20:03:30.563Z,11.93
2018-05-02T20:06:00.183Z,11.03
2018-05-02T20:08:35.127Z,11.47
2018-05-02T20:11:10.024Z,11.43
2018-05-02T20:13:44.975Z,11.10
2018-05-02T20:16:14.811Z,11.27
2018-05-02T20:18:44.484Z,11.20
2018-05-02T20:21:14.136Z,11.60
2018-05-02T20:23:43.761Z,12.43
2018-05-02T20:26:13.399Z,12.50
2018-05-02T20:28:44.221Z,12.37
2018-05-02T20:31:13.949Z,12.37
2018-05-02T20:33:43.313Z,11.97
2018-05-02T20:36:12.935Z,12.10
2018-05-02T20:38:44.248Z,12.93
2018-05-02T20:41:13.874Z,12.63
2018-05-02T20:43:43.560Z,12.23
2018-05-02T20:46:13.198Z,12.97
2018-05-02T20:48:42.826Z,12.63
2018-05-02T20:51:12.491Z,12.73
2018-05-02T20:53:41.846Z,12.53
2018-05-02T20:56:11.477Z,13.53
2018-05-02T20:58:41.109Z,12.90
2018-05-02T21:01:10.735Z,12.53
2018-05-02T21:03:40.352Z,13.40
2018-05-02T21:06:09.980Z,12.83
2018-05-02T21:08:39.605Z,12.90
2018-05-02T21:11:09.239Z,13.20
2018-05-02T21:13:38.921Z,12.77
2018-05-02T21:16:08.599Z,12.60
2018-05-02T21:18:38.259Z,14.03
2018-05-02T21:21:07.894Z,13.37
2018-05-02T21:23:37.531Z,14.23
2018-05-02T21:26:07.208Z,14.00
2018-05-02T21:28:36.939Z,13.07
2018-05-02T21:31:06.271Z,13.83
2018-05-02T21:33:36.092Z,14.10
2018-05-02T21:36:05.722Z,13.77
2018-05-02T21:38:35.348Z,14.00
2018-05-02T21:41:04.980Z,13.93
2018-05-02T21:43:34.620Z,13.87
2018-05-02T21:46:04.247Z,13.97
2018-05-02T21:48:33.895Z,14.10
2018-05-02T21:51:03.522Z,14.33
2018-05-02T21:53:33.190Z,13.80
2018-05-02T21:56:02.811Z,14.40
2018-05-02T21:58:32.197Z,14.20
2018-05-02T22:01:01.859Z,14.77
2018-05-02T22:03:31.218Z,15.53
2018-05-02T22:06:00.896Z,14.70
2018-05-02T22:08:30.519Z,14.87
2018-05-02T22:11:00.173Z,15.23
2018-05-02T22:13:29.815Z,14.63
2018-05-02T22:15:59.435Z,14.20
2018-05-02T22:18:29.192Z,15.07
2018-05-02T22:20:58.810Z,14.80
2018-05-02T22:23:28.456Z,15.13
2018-05-02T22:25:58.110Z,15.90
2018-05-02T22:28:27.743Z,15.20
2018-05-02T22:30:57.384Z,15.77
2018-05-02T22:33:27.019Z,15.40
2018-05-02T22:35:56.704Z,15.97
2018-05-02T22:38:26.337Z,15.50
2018-05-02T22:40:56.013Z,15.93
2018-05-02T22:43:25.642Z,15.47
2018-05-02T22:45:55.263Z,16.03
2018-05-02T22:48:24.894Z,15.80
2018-05-02T22:50:54.526Z,16.47
2018-05-02T22:53:24.206Z,15.77
2018-05-02T22:55:53.833Z,16.23
2018-05-02T22:58:23.458Z,15.73
2018-05-02T23:00:53.083Z,16.00
2018-05-02T23:03:22.716Z,16.70
2018-05-02T23:05:52.395Z,16.10
2018-05-02T23:08:22.027Z,15.53
2018-05-02T23:10:51.650Z,15.47
2018-05-02T23:13:21.279Z,16.20
2018-05-02T23:15:50.917Z,16.10
2018-05-02T23:18:20.749Z,16.27
2018-05-02T23:20:50.603Z,17.40
2018-05-02T23:23:20.270Z,17.40
2018-05-02T23:25:49.909Z,16.20
2018-05-02T23:28:19.539Z,17.23
2018-05-02T23:30:49.166Z,16.57
2018-05-02T23:33:18.806Z,17.27
2018-05-02T23:35:48.199Z,17.43
2018-05-02T23:38:17.895Z,18.73
2018-05-02T23:40:47.561Z,17.13
2018-05-02T23:43:17.213Z,17.57
2018-05-02T23:45:46.848Z,17.60
2018-05-02T23:48:16.531Z,16.90
2018-05-02T23:50:46.152Z,17.23
2018-05-02T23:53:15.831Z,16.97
2018-05-02T23:55:45.472Z,17.00
2018-05-02T23:58:15.104Z,16.90
